Map

Track Data

SID SEASON NUMBER BASIN SUBBASIN NAME ISO_TIME NATURE LAT LON WMO_WIND WMO_PRES WMO_AGENCY TRACK_TYPE DIST2LAND LANDFALL IFLAG USA_AGENCY USA_ATCF_ID USA_LAT USA_LON USA_RECORD USA_STATUS USA_WIND USA_PRES USA_SSHS USA_R34_NE USA_R34_SE USA_R34_SW USA_R34_NW USA_R50_NE USA_R50_SE USA_R50_SW USA_R50_NW USA_R64_NE USA_R64_SE USA_R64_SW USA_R64_NW USA_POCI USA_ROCI USA_RMW USA_EYE TOKYO_LAT TOKYO_LON TOKYO_GRADE TOKYO_WIND TOKYO_PRES TOKYO_R50_DIR TOKYO_R50_LONG TOKYO_R50_SHORT TOKYO_R30_DIR TOKYO_R30_LONG TOKYO_R30_SHORT TOKYO_LAND CMA_LAT CMA_LON CMA_CAT CMA_WIND CMA_PRES HKO_LAT HKO_LON HKO_CAT HKO_WIND HKO_PRES NEWDELHI_LAT NEWDELHI_LON NEWDELHI_GRADE NEWDELHI_WIND NEWDELHI_PRES NEWDELHI_CI NEWDELHI_DP NEWDELHI_POCI REUNION_LAT REUNION_LON REUNION_TYPE REUNION_WIND REUNION_PRES REUNION_TNUM REUNION_CI REUNION_RMW REUNION_R34_NE REUNION_R34_SE REUNION_R34_SW REUNION_R34_NW REUNION_R50_NE REUNION_R50_SE REUNION_R50_SW REUNION_R50_NW REUNION_R64_NE REUNION_R64_SE REUNION_R64_SW REUNION_R64_NW BOM_LAT BOM_LON BOM_TYPE BOM_WIND BOM_PRES BOM_TNUM BOM_CI BOM_RMW BOM_R34_NE BOM_R34_SE BOM_R34_SW BOM_R34_NW BOM_R50_NE BOM_R50_SE BOM_R50_SW BOM_R50_NW BOM_R64_NE BOM_R64_SE BOM_R64_SW BOM_R64_NW BOM_ROCI BOM_POCI BOM_EYE BOM_POS_METHOD BOM_PRES_METHOD NADI_LAT NADI_LON NADI_CAT NADI_WIND NADI_PRES WELLINGTON_LAT WELLINGTON_LON WELLINGTON_WIND WELLINGTON_PRES DS824_LAT DS824_LON DS824_STAGE DS824_WIND DS824_PRES TD9636_LAT TD9636_LON TD9636_STAGE TD9636_WIND TD9636_PRES TD9635_LAT TD9635_LON TD9635_WIND TD9635_PRES TD9635_ROCI NEUMANN_LAT NEUMANN_LON NEUMANN_CLASS NEUMANN_WIND NEUMANN_PRES MLC_LAT MLC_LON MLC_CLASS MLC_WIND MLC_PRES USA_GUST BOM_GUST BOM_GUST_PER REUNION_GUST REUNION_GUST_PER USA_SEAHGT USA_SEARAD_NE USA_SEARAD_SE USA_SEARAD_SW USA_SEARAD_NW STORM_SPEED STORM_DIR
1993011S12214 1993 2 SP MM NOT_NAMED 1993-01-10 18:00:00 TS -12.3000 -146.500 main 2789 2756 O___________O_ jtwc_sh SH091993 -12.3000 -146.500 20 -1 -12.3000 -146.500 TC 20 6 270
1993011S12214 1993 2 SP MM NOT_NAMED 1993-01-10 21:00:00 TS -12.2976 -146.805 main 2756 2724 P___________P_ SH091993 -12.2976 -146.805 22 -1 -12.2976 -146.805 TC 22 6 270
1993011S12214 1993 2 SP MM NOT_NAMED 1993-01-11 00:00:00 TS -12.3000 -147.100 main 2724 2691 O___________O_ jtwc_sh SH091993 -12.3000 -147.100 25 -1 -12.3000 -147.100 TC 25 6 269
1993011S12214 1993 2 SP MM NOT_NAMED 1993-01-11 03:00:00 TS -12.3074 -147.385 main 2691 2659 P___________P_ SH091993 -12.3074 -147.385 25 -1 -12.3074 -147.385 TC 25 6 270
1993011S12214 1993 2 SP MM NOT_NAMED 1993-01-11 06:00:00 TS -12.3000 -147.700 main 2659 2616 O___________O_ jtwc_sh SH091993 -12.3000 -147.700 25 -1 -12.3000 -147.700 TC 25 7 274
1993011S12214 1993 2 SP MM NOT_NAMED 1993-01-11 09:00:00 TS -12.2650 -148.085 main 2616 2574 P___________P_ SH091993 -12.2650 -148.085 27 -1 -12.2650 -148.085 TC 27 8 277
1993011S12214 1993 2 SP MM NOT_NAMED 1993-01-11 12:00:00 TS -12.2000 -148.500 main 2574 2543 O___________O_ jtwc_sh SH091993 -12.2000 -148.500 30 -1 -12.2000 -148.500 TC 30 8 281
1993011S12214 1993 2 SP MM NOT_NAMED 1993-01-11 15:00:00 TS -12.1148 -148.870 main 2532 2490 P___________P_ SH091993 -12.1148 -148.870 30 -1 -12.1148 -148.870 TC 30 8 284
1993011S12214 1993 2 SP MM NOT_NAMED 1993-01-11 18:00:00 TS -12.0000 -149.300 main 2490 2437 O___________O_ jtwc_sh SH091993 -12.0000 -149.300 30 -1 -12.0000 -149.300 TC 30 10 285
1993011S12214 1993 2 SP MM NOT_NAMED 1993-01-11 21:00:00 TS -11.8573 -149.840 main 2437 2365 P___________P_ SH091993 -11.8573 -149.840 30 -1 -11.8573 -149.840 TC 30 12 284
1993011S12214 1993 2 SP MM NOT_NAMED 1993-01-12 00:00:00 TS -11.7000 -150.500 main 2365 2292 O___________O_ jtwc_sh SH091993 -11.7000 -150.500 30 -1 -11.7000 -150.500 TC 30 15 283
1993011S12214 1993 2 SP MM NOT_NAMED 1993-01-12 03:00:00 TS -11.5201 -151.278 main 2282 2197 P___________P_ SH091993 -11.5201 -151.278 30 -1 -11.5201 -151.278 TC 30 16 281
1993011S12214 1993 2 SP MM NOT_NAMED 1993-01-12 06:00:00 TS -11.4000 -152.100 main 2197 2113 O___________O_ jtwc_sh SH091993 -11.4000 -152.100 30 -1 -11.4000 -152.100 TC 30 16 276
1993011S12214 1993 2 SP MM NOT_NAMED 1993-01-12 09:00:00 TS -11.3451 -152.918 main 2113 2034 P___________P_ SH091993 -11.3451 -152.918 30 -1 -11.3451 -152.918 TC 30 15 266
1993011S12214 1993 2 SP MM NOT_NAMED 1993-01-12 12:00:00 TS -11.5000 -153.600 main 2034 1973 O___________O_ jtwc_sh SH091993 -11.5000 -153.600 30 -1 -11.5000 -153.600 TC 30 13 242
1993011S12214 1993 2 SP MM NOT_NAMED 1993-01-12 15:00:00 TS -11.9523 -154.077 main 1972 1942 P___________P_ SH091993 -11.9523 -154.077 30 -1 -11.9523 -154.077 TC 30 13 212
1993011S12214 1993 2 SP MM NOT_NAMED 1993-01-12 18:00:00 TS -12.6000 -154.300 main 1942 1937 O___________O_ jtwc_sh SH091993 -12.6000 -154.300 30 -1 -12.6000 -154.300 TC 30 13 189
1993011S12214 1993 2 SP MM NOT_NAMED 1993-01-12 21:00:00 TS -13.2624 -154.290 main 1936 1935 P___________P_ SH091993 -13.2624 -154.290 27 -1 -13.2624 -154.290 TC 27 14 172
1993011S12214 1993 2 SP MM NOT_NAMED 1993-01-13 00:00:00 TS -14.0000 -154.100 main 1954 1953 O___________O_ jtwc_sh SH091993 -14.0000 -154.100 25 -1 -14.0000 -154.100 TC 25 16 166
1993011S12214 1993 2 SP MM NOT_NAMED 1993-01-13 03:00:00 TS -14.7925 -153.887 main 1975 1975 P___________P_ SH091993 -14.7925 -153.887 25 -1 -14.7925 -153.887 TC 25 17 163
1993011S12214 1993 2 SP MM NOT_NAMED 1993-01-13 06:00:00 TS -15.6000 -153.600 main 2010 2010 O___________O_ jtwc_sh SH091993 -15.6000 -153.600 25 -1 -15.6000 -153.600 TC 25 17 160
1993011S12214 1993 2 SP MM NOT_NAMED 1993-01-13 09:00:00 TS -16.3499 -153.287 main 2048 2048 P___________P_ SH091993 -16.3499 -153.287 25 -1 -16.3499 -153.287 TC 25 17 156
1993011S12214 1993 2 SP MM NOT_NAMED 1993-01-13 12:00:00 TS -17.1000 -152.900 main 2101 2101 O___________O_ jtwc_sh SH091993 -17.1000 -152.900 25 -1 -17.1000 -152.900 TC 25 18 152
1993011S12214 1993 2 SP MM NOT_NAMED 1993-01-13 15:00:00 TS -17.8999 -152.437 main 2166 2166 P___________P_ SH091993 -17.8999 -152.437 25 -1 -17.8999 -152.437 TC 25 19 149
1993011S12214 1993 2 SP MM NOT_NAMED 1993-01-13 18:00:00 TS -18.7000 -151.900 main 2234 2234 O___________O_ jtwc_sh SH091993 -18.7000 -151.900 25 -1 -18.7000 -151.900 TC 25 19 146
1993011S12214 1993 2 SP MM NOT_NAMED 1993-01-13 21:00:00 TS -19.4629 -151.314 main 2314 2314 P___________P_ SH091993 -19.4629 -151.314 22 -1 -19.4629 -151.314 TC 22 19 143
1993011S12214 1993 2 SP MM NOT_NAMED 1993-01-14 00:00:00 TS -20.2000 -150.700 main 2393 O___________O_ jtwc_sh SH091993 -20.2000 -150.700 20 -1 -20.2000 -150.700 TC 20 19 142

Digital Typhoon Data and Search

About IBTrACS Database

This database is a web-friendly format of International Best Track Archive for Climate Stewardship (IBTrACS), a global best track data archive curated by NOAA dating back to 1842.

Updated: 2021-12-06